Time;durP1;ratioP1;P1;durP2;ratioP2;P2;SDS_P1;SDS_P2;PMS_P1;PMS_P2;Temp;Humidity;BMP_temperature;BMP_pressure;BME280_temperature;BME280_humidity;BME280_pressure;Samples;Min_cycle;Max_cycle;Signal;HPM_P1;HPM_P2
2024/02/05 00:00:42;;;;;;;2.30;1.10;;;;;;;7.68;100.00;100303.72;5034473;28;20939;-72
2024/02/05 00:03:09;;;;;;;2.00;0.67;;;;;;;7.70;100.00;100298.84;5049379;22;20495;-69
2024/02/05 00:05:36;;;;;;;1.77;0.47;;;;;;;7.73;100.00;100298.28;5034322;28;20931;-71
2024/02/05 00:08:05;;;;;;;2.00;0.77;;;;;;;7.78;100.00;100293.63;5034288;28;20435;-71
2024/02/05 00:10:32;;;;;;;2.43;0.80;;;;;;;7.83;100.00;100290.06;5034910;28;20454;-71
2024/02/05 00:12:58;;;;;;;2.00;0.73;;;;;;;7.92;100.00;100287.50;5034427;28;20550;-71
2024/02/05 00:15:25;;;;;;;3.63;0.87;;;;;;;7.94;100.00;100279.94;5034110;28;21069;-71
2024/02/05 00:17:52;;;;;;;2.00;0.70;;;;;;;8.00;100.00;100289.56;5034465;28;20443;-71
2024/02/05 00:20:18;;;;;;;2.70;1.03;;;;;;;8.07;100.00;100269.22;5034387;28;20672;-70
2024/02/05 00:22:45;;;;;;;1.80;0.47;;;;;;;8.16;100.00;100265.88;5034809;28;20470;-70
2024/02/05 00:25:14;;;;;;;1.87;0.70;;;;;;;8.17;100.00;100268.28;5034693;28;20557;-70
2024/02/05 00:27:40;;;;;;;2.37;0.90;;;;;;;8.26;100.00;100265.72;5034680;28;20509;-70
2024/02/05 00:30:09;;;;;;;3.43;0.80;;;;;;;8.39;100.00;100261.50;5034059;28;21007;-68
2024/02/05 00:32:37;;;;;;;2.10;0.80;;;;;;;8.50;100.00;100265.63;5033784;28;20509;-69
2024/02/05 00:35:05;;;;;;;2.17;0.93;;;;;;;8.56;100.00;100267.97;5033618;28;20501;-69
2024/02/05 00:37:31;;;;;;;1.70;0.50;;;;;;;8.63;100.00;100258.66;5033507;28;20442;-69
2024/02/05 00:39:58;;;;;;;1.57;0.50;;;;;;;8.72;100.00;100262.28;5033773;28;20447;-69
2024/02/05 00:42:26;;;;;;;1.60;0.50;;;;;;;8.83;100.00;100261.03;5033665;28;20459;-69
2024/02/05 00:44:53;;;;;;;1.60;0.40;;;;;;;8.97;100.00;100261.06;5033997;28;20449;-69
2024/02/05 00:47:19;;;;;;;1.70;0.60;;;;;;;9.11;100.00;100272.66;5033957;28;20923;-69
2024/02/05 00:49:46;;;;;;;1.70;0.60;;;;;;;9.20;100.00;100262.78;5033952;28;20501;-68
2024/02/05 00:52:14;;;;;;;1.50;0.40;;;;;;;9.28;100.00;100263.97;5034501;28;20546;-68
2024/02/05 00:54:40;;;;;;;1.90;0.80;;;;;;;9.37;100.00;100261.38;5034200;28;20801;-68
2024/02/05 00:57:07;;;;;;;1.60;0.40;;;;;;;9.41;100.00;100246.97;5033845;28;20525;-68
2024/02/05 00:59:35;;;;;;;1.50;0.47;;;;;;;9.42;100.00;100242.34;5033467;28;20446;-68
2024/02/05 01:02:02;;;;;;;1.63;0.57;;;;;;;9.47;100.00;100234.13;5033798;28;20490;-69
2024/02/05 01:04:30;;;;;;;1.70;0.40;;;;;;;9.53;100.00;100247.25;5033559;28;20521;-68
2024/02/05 01:06:57;;;;;;;1.70;0.60;;;;;;;9.58;100.00;100246.34;5033343;28;20998;-69
2024/02/05 01:09:25;;;;;;;1.50;0.30;;;;;;;9.62;100.00;100243.84;5033364;28;20481;-69
2024/02/05 01:11:51;;;;;;;1.50;0.40;;;;;;;9.69;100.00;100244.22;5033559;28;20497;-69
2024/02/05 01:14:18;;;;;;;1.60;0.50;;;;;;;9.80;100.00;100241.00;5033617;28;20486;-69
2024/02/05 01:16:46;;;;;;;1.50;0.30;;;;;;;9.84;100.00;100244.69;5033198;28;20485;-69
2024/02/05 01:19:13;;;;;;;1.50;0.30;;;;;;;9.91;100.00;100238.84;5033546;28;20821;-69
2024/02/05 01:21:39;;;;;;;1.60;0.40;;;;;;;9.95;100.00;100242.56;5033561;28;20455;-69
2024/02/05 01:24:07;;;;;;;2.00;0.57;;;;;;;9.97;100.00;100243.06;5033813;28;20538;-69
2024/02/05 01:26:34;;;;;;;1.50;0.40;;;;;;;9.99;100.00;100254.38;5033501;28;20811;-69
2024/02/05 01:29:00;;;;;;;1.80;0.50;;;;;;;10.06;100.00;100243.94;5033440;28;20446;-69
2024/02/05 01:31:27;;;;;;;1.60;0.43;;;;;;;10.09;100.00;100247.91;5033345;28;20439;-68
2024/02/05 01:33:55;;;;;;;1.50;0.40;;;;;;;10.07;100.00;100242.03;5033388;28;20435;-68
2024/02/05 01:36:21;;;;;;;1.87;0.50;;;;;;;10.11;100.00;100248.44;5033686;28;20479;-68
2024/02/05 01:38:48;;;;;;;1.80;0.50;;;;;;;10.20;100.00;100237.69;5033413;28;20467;-69
2024/02/05 01:41:15;;;;;;;2.83;0.60;;;;;;;10.17;100.00;100241.78;5033693;28;20482;-72
2024/02/05 01:43:42;;;;;;;1.60;0.40;;;;;;;10.14;100.00;100237.00;5033239;28;20465;-70
2024/02/05 01:46:10;;;;;;;1.50;0.30;;;;;;;10.14;100.00;100242.41;5033634;28;20447;-71
2024/02/05 01:48:38;;;;;;;1.57;0.40;;;;;;;10.16;100.00;100240.19;5036860;28;20790;-71
2024/02/05 01:51:06;;;;;;;1.50;0.30;;;;;;;10.27;100.00;100251.59;5037244;28;20517;-71
2024/02/05 01:53:34;;;;;;;1.50;0.40;;;;;;;10.28;100.00;100250.50;5036740;28;20463;-70
2024/02/05 01:56:01;;;;;;;1.50;0.30;;;;;;;10.30;100.00;100254.50;5037027;28;20486;-71
2024/02/05 01:58:28;;;;;;;1.50;0.30;;;;;;;10.31;100.00;100260.72;5037273;28;20517;-71
2024/02/05 02:00:55;;;;;;;1.50;0.30;;;;;;;10.28;100.00;100259.44;5037051;28;20529;-70
2024/02/05 02:03:22;;;;;;;1.60;0.40;;;;;;;10.30;100.00;100261.81;5036925;28;20471;-70
2024/02/05 02:05:49;;;;;;;1.50;0.30;;;;;;;10.35;100.00;100265.19;5037594;28;20526;-71
2024/02/05 02:08:19;;;;;;;1.77;0.40;;;;;;;10.31;100.00;100280.47;5036919;28;20855;-71
2024/02/05 02:10:46;;;;;;;1.50;0.40;;;;;;;10.26;100.00;100261.63;5036933;28;20510;-70
2024/02/05 02:13:13;;;;;;;1.50;0.40;;;;;;;10.33;100.00;100278.25;5036912;28;20463;-71
2024/02/05 02:15:40;;;;;;;1.50;0.40;;;;;;;10.34;100.00;100266.31;5036683;28;20435;-71
2024/02/05 02:18:10;;;;;;;1.60;0.40;;;;;;;10.35;100.00;100267.09;5036753;28;21010;-70
2024/02/05 02:20:43;;;;;;;1.50;0.40;;;;;;;10.35;100.00;100264.41;5036699;28;20527;-71
2024/02/05 02:23:18;;;;;;;1.80;0.40;;;;;;;10.34;100.00;100262.81;5036619;28;20462;-71
2024/02/05 02:25:44;;;;;;;1.70;0.50;;;;;;;10.29;100.00;100255.63;5036624;28;20455;-71
2024/02/05 02:28:11;;;;;;;1.70;0.40;;;;;;;10.30;100.00;100257.19;5036223;28;20519;-72
2024/02/05 02:30:39;;;;;;;1.80;0.40;;;;;;;10.34;100.00;100254.69;5036473;28;20434;-71
2024/02/05 02:33:16;;;;;;;1.57;0.37;;;;;;;10.31;100.00;100258.81;5036873;28;20474;-71
2024/02/05 02:35:46;;;;;;;1.87;0.40;;;;;;;10.33;100.00;100262.00;5036645;28;20422;-71
2024/02/05 02:38:20;;;;;;;1.50;0.30;;;;;;;10.31;100.00;100258.81;5036060;28;20793;-72
2024/02/05 02:40:53;;;;;;;2.17;0.60;;;;;;;10.32;100.00;100255.00;5036392;28;20888;-72
2024/02/05 02:43:21;;;;;;;1.70;0.60;;;;;;;10.30;100.00;100251.78;5036340;28;20490;-71
2024/02/05 02:45:50;;;;;;;1.57;0.40;;;;;;;10.33;100.00;100256.59;5036545;28;20439;-70
2024/02/05 02:48:17;;;;;;;1.97;0.50;;;;;;;10.31;100.00;100249.88;5036148;28;20435;-70
2024/02/05 02:50:44;;;;;;;1.57;0.43;;;;;;;10.31;100.00;100258.00;5036501;28;20447;-71
2024/02/05 02:53:10;;;;;;;1.47;0.33;;;;;;;10.35;100.00;100257.06;5036438;28;20513;-70
2024/02/05 02:55:38;;;;;;;1.80;0.50;;;;;;;10.35;100.00;100254.38;5036365;28;20471;-71
2024/02/05 02:58:05;;;;;;;1.50;0.30;;;;;;;10.30;100.00;100267.22;5036344;28;20522;-72
2024/02/05 03:00:32;;;;;;;1.77;0.50;;;;;;;10.29;100.00;100258.31;5035154;28;20435;-71
2024/02/05 03:02:59;;;;;;;1.70;0.40;;;;;;;10.28;100.00;100264.06;5035619;28;20908;-71
2024/02/05 03:05:26;;;;;;;1.73;0.47;;;;;;;10.29;100.00;100273.75;5035870;28;20530;-71
2024/02/05 03:07:53;;;;;;;1.60;0.40;;;;;;;10.29;100.00;100273.75;5035852;28;20897;-75
2024/02/05 03:10:20;;;;;;;1.70;0.50;;;;;;;10.30;100.00;100268.03;5035471;28;20531;-71
2024/02/05 03:12:48;;;;;;;1.50;0.40;;;;;;;10.32;100.00;100263.13;5035488;28;20465;-71
2024/02/05 03:15:14;;;;;;;1.50;0.40;;;;;;;10.28;100.00;100274.88;5035594;28;20538;-71
2024/02/05 03:17:41;;;;;;;1.60;0.40;;;;;;;10.29;100.00;100281.88;5035670;28;20513;-72
2024/02/05 03:20:08;;;;;;;1.50;0.30;;;;;;;10.32;100.00;100282.06;5035998;28;20966;-73
2024/02/05 03:22:35;;;;;;;1.70;0.53;;;;;;;10.29;100.00;100282.69;5035459;28;20459;-73
2024/02/05 03:25:02;;;;;;;1.60;0.40;;;;;;;10.32;100.00;100287.50;5035164;28;20501;-72
2024/02/05 03:27:29;;;;;;;1.60;0.40;;;;;;;10.34;100.00;100304.22;5035325;28;20943;-72
2024/02/05 03:29:56;;;;;;;1.60;0.40;;;;;;;10.29;100.00;100290.81;5035390;28;20931;-72
2024/02/05 03:32:23;;;;;;;1.60;0.50;;;;;;;10.30;100.00;100299.72;5035066;28;20456;-72
2024/02/05 03:34:49;;;;;;;1.50;0.37;;;;;;;10.30;100.00;100292.41;5035629;28;20443;-72
2024/02/05 03:37:16;;;;;;;1.60;0.40;;;;;;;10.27;100.00;100290.31;5035292;28;20485;-72
2024/02/05 03:39:43;;;;;;;1.50;0.50;;;;;;;10.27;100.00;100292.19;5035347;28;20525;-72
2024/02/05 03:42:09;;;;;;;1.53;0.40;;;;;;;10.26;100.00;100291.41;5035465;28;20487;-72
2024/02/05 03:44:36;;;;;;;2.20;0.50;;;;;;;10.20;100.00;100299.94;5035112;28;20443;-72
2024/02/05 03:47:04;;;;;;;1.60;0.40;;;;;;;10.24;100.00;100299.03;5035054;28;20538;-72
2024/02/05 03:49:31;;;;;;;1.60;0.50;;;;;;;10.30;100.00;100286.97;5035037;28;20526;-71
2024/02/05 03:51:58;;;;;;;1.57;0.43;;;;;;;10.28;100.00;100297.34;5034988;28;20809;-72
2024/02/05 03:54:24;;;;;;;1.60;0.40;;;;;;;10.35;100.00;100303.09;5035448;28;20517;-72
2024/02/05 03:56:51;;;;;;;1.70;0.50;;;;;;;10.31;100.00;100291.31;5034856;28;20579;-71
2024/02/05 03:59:17;;;;;;;1.60;0.50;;;;;;;10.28;100.00;100300.03;5034626;28;20442;-72
2024/02/05 04:01:44;;;;;;;1.50;0.30;;;;;;;10.29;100.00;100304.34;5034579;28;20907;-71
2024/02/05 04:04:12;;;;;;;1.60;0.40;;;;;;;10.30;100.00;100302.44;5034417;28;20978;-72
2024/02/05 04:06:39;;;;;;;1.43;0.30;;;;;;;10.27;100.00;100317.38;5034641;28;20447;-71
2024/02/05 04:09:07;;;;;;;1.50;0.30;;;;;;;10.25;100.00;100313.38;5034650;28;20439;-71
2024/02/05 04:11:33;;;;;;;1.60;0.40;;;;;;;10.24;100.00;100309.88;5034613;28;20486;-71
2024/02/05 04:14:00;;;;;;;1.50;0.30;;;;;;;10.26;100.00;100315.75;5034570;28;20540;-71
2024/02/05 04:16:27;;;;;;;1.50;0.37;;;;;;;10.33;100.00;100321.56;5034434;28;20562;-71
2024/02/05 04:18:53;;;;;;;1.50;0.30;;;;;;;10.30;100.00;100327.59;5034809;28;20467;-71
2024/02/05 04:21:21;;;;;;;1.50;0.40;;;;;;;10.28;100.00;100329.03;5034684;28;20439;-71
2024/02/05 04:23:48;;;;;;;1.50;0.40;;;;;;;10.26;100.00;100326.59;5034565;28;20435;-71
2024/02/05 04:26:16;;;;;;;1.60;0.40;;;;;;;10.25;100.00;100322.28;5033991;28;20858;-71
2024/02/05 04:28:43;;;;;;;1.60;0.43;;;;;;;10.25;100.00;100329.63;5034260;28;20471;-71
2024/02/05 04:31:10;;;;;;;1.70;0.40;;;;;;;10.28;100.00;100332.53;5034260;28;20486;-71
2024/02/05 04:33:37;;;;;;;1.50;0.40;;;;;;;10.27;100.00;100330.94;5034645;28;20463;-71
2024/02/05 04:36:09;;;;;;;1.60;0.40;;;;;;;10.23;100.00;100320.97;5034210;28;21029;-71
2024/02/05 04:38:37;;;;;;;1.60;0.40;;;;;;;10.15;100.00;100319.78;5034172;28;20451;-72
2024/02/05 04:41:03;;;;;;;1.60;0.40;;;;;;;10.13;100.00;100326.59;5033988;28;20483;-72
2024/02/05 04:43:30;;;;;;;1.50;0.40;;;;;;;10.15;100.00;100319.78;5034161;28;20494;-72
2024/02/05 04:45:57;;;;;;;1.77;0.50;;;;;;;10.16;100.00;100332.22;5033690;28;20939;-71
2024/02/05 04:48:23;;;;;;;2.00;0.50;;;;;;;10.15;100.00;100336.03;5034021;28;20474;-71
2024/02/05 04:50:50;;;;;;;2.00;0.47;;;;;;;10.17;100.00;100339.22;5034273;28;20529;-72
2024/02/05 04:53:17;;;;;;;1.50;0.30;;;;;;;10.15;100.00;100346.84;5034212;28;20469;-72
2024/02/05 04:55:45;;;;;;;1.60;0.50;;;;;;;10.14;100.00;100339.03;5033829;28;20535;-72
2024/02/05 04:58:12;;;;;;;1.50;0.40;;;;;;;10.12;100.00;100342.03;5034111;28;20486;-71
2024/02/05 05:00:38;;;;;;;2.80;0.40;;;;;;;10.14;100.00;100347.97;5034143;28;20435;-71
2024/02/05 05:03:05;;;;;;;2.03;0.67;;;;;;;10.11;100.00;100372.91;5033347;28;21053;-71
2024/02/05 05:05:32;;;;;;;1.50;0.40;;;;;;;10.11;100.00;100349.38;5033778;28;20451;-71
2024/02/05 05:07:58;;;;;;;1.60;0.40;;;;;;;10.09;100.00;100342.63;5033928;28;20518;-71
2024/02/05 05:10:25;;;;;;;1.50;0.30;;;;;;;10.11;100.00;100349.38;5033844;28;20462;-71
2024/02/05 05:12:53;;;;;;;1.70;0.40;;;;;;;10.13;100.00;100335.50;5033553;28;20467;-71
2024/02/05 05:15:20;;;;;;;1.60;0.40;;;;;;;10.05;100.00;100337.06;5033412;28;20478;-71
2024/02/05 05:17:46;;;;;;;2.13;0.40;;;;;;;10.02;100.00;100337.66;5033499;28;20511;-72
2024/02/05 05:20:13;;;;;;;1.50;0.40;;;;;;;10.01;100.00;100343.38;5034020;28;20872;-69
2024/02/05 05:22:40;;;;;;;1.57;0.40;;;;;;;10.04;100.00;100335.44;5032981;28;20490;-73
2024/02/05 05:25:08;;;;;;;1.83;0.70;;;;;;;10.01;100.00;100344.19;5033545;28;20486;-72
2024/02/05 05:27:34;;;;;;;2.00;0.40;;;;;;;9.99;100.00;100337.44;5033523;28;20443;-72
2024/02/05 05:30:03;;;;;;;1.50;0.40;;;;;;;10.04;100.00;100342.75;5033482;28;20445;-72
2024/02/05 05:32:29;;;;;;;1.60;0.40;;;;;;;9.98;100.00;100346.69;5033099;28;20451;-71
2024/02/05 05:34:56;;;;;;;1.50;0.40;;;;;;;10.01;100.00;100337.97;5033422;28;20912;-71
2024/02/05 05:37:23;;;;;;;1.50;0.40;;;;;;;10.06;100.00;100337.84;5033075;28;20514;-72
2024/02/05 05:39:51;;;;;;;1.60;0.40;;;;;;;10.03;100.00;100351.97;5033378;28;20533;-71
2024/02/05 05:42:18;;;;;;;1.50;0.40;;;;;;;10.03;100.00;100354.69;5033169;28;20542;-72
2024/02/05 05:44:45;;;;;;;1.50;0.30;;;;;;;9.98;100.00;100336.66;5033300;28;20475;-72
2024/02/05 05:47:13;;;;;;;1.80;0.50;;;;;;;9.96;100.00;100343.47;5033347;28;20493;-72
2024/02/05 05:49:39;;;;;;;1.50;0.40;;;;;;;9.97;100.00;100345.88;5033872;28;20542;-72
2024/02/05 05:52:06;;;;;;;1.70;0.40;;;;;;;10.00;100.00;100349.88;5032867;28;20513;-72
2024/02/05 05:54:33;;;;;;;1.50;0.53;;;;;;;10.04;100.00;100340.03;5033223;28;20483;-72
2024/02/05 05:57:00;;;;;;;1.47;0.30;;;;;;;10.02;100.00;100328.75;5033486;28;20483;-72
2024/02/05 05:59:27;;;;;;;1.60;0.40;;;;;;;10.00;100.00;100339.03;5033079;28;20823;-72
2024/02/05 06:01:54;;;;;;;1.50;0.30;;;;;;;10.09;100.00;100337.22;5032811;28;20487;-72
2024/02/05 06:04:22;;;;;;;2.10;0.70;;;;;;;10.08;100.00;100341.03;5062250;22;20832;-74
2024/02/05 06:06:49;;;;;;;1.43;0.40;;;;;;;10.07;100.00;100334.03;5053095;28;20532;-74
2024/02/05 06:09:18;;;;;;;1.50;0.40;;;;;;;10.07;100.00;100340.25;5053567;28;20434;-74
2024/02/05 06:11:45;;;;;;;1.50;0.40;;;;;;;10.11;100.00;100338.53;5052941;28;20465;-74
2024/02/05 06:14:12;;;;;;;1.50;0.30;;;;;;;10.18;100.00;100337.31;5053344;28;20451;-74
2024/02/05 06:16:38;;;;;;;1.50;0.30;;;;;;;10.17;100.00;100338.41;5052926;28;20441;-74
2024/02/05 06:19:05;;;;;;;1.57;0.37;;;;;;;10.19;100.00;100330.81;5052775;28;20493;-74
2024/02/05 06:21:33;;;;;;;1.50;0.37;;;;;;;10.13;100.00;100330.09;5052960;28;20442;-74
2024/02/05 06:23:59;;;;;;;1.50;0.40;;;;;;;10.14;100.00;100333.59;5052849;28;20516;-74
2024/02/05 06:26:26;;;;;;;1.50;0.33;;;;;;;10.16;100.00;100337.63;5052820;28;20438;-73
2024/02/05 06:28:53;;;;;;;1.60;0.40;;;;;;;10.18;100.00;100348.13;5052814;28;20521;-73
2024/02/05 06:31:19;;;;;;;5.50;0.70;;;;;;;10.12;100.00;100344.75;5052746;28;20529;-73
2024/02/05 06:33:47;;;;;;;2.53;0.73;;;;;;;10.11;100.00;100348.56;5053051;28;20533;-72
2024/02/05 06:36:14;;;;;;;2.90;1.17;;;;;;;10.09;100.00;100339.94;5056412;28;20442;-70
2024/02/05 06:38:43;;;;;;;2.27;1.03;;;;;;;10.07;100.00;100355.69;5056438;28;20483;-71
2024/02/05 06:41:09;;;;;;;1.70;0.40;;;;;;;10.10;100.00;100352.38;5056463;28;20442;-75
2024/02/05 06:43:36;;;;;;;1.60;0.40;;;;;;;10.07;100.00;100358.38;5056202;28;20521;-76
2024/02/05 06:46:04;;;;;;;1.50;0.30;;;;;;;10.12;100.00;100350.16;5056492;28;20521;-74
2024/02/05 06:48:34;;;;;;;1.70;0.60;;;;;;;10.05;100.00;100364.13;5055743;28;20926;-73
2024/02/05 06:51:00;;;;;;;1.60;0.47;;;;;;;10.13;100.00;100354.47;5056037;28;20454;-73
2024/02/05 06:53:27;;;;;;;1.77;0.60;;;;;;;10.06;100.00;100346.78;5055921;28;20462;-74
2024/02/05 06:55:55;;;;;;;1.70;0.50;;;;;;;10.06;100.00;100367.63;5056265;28;20434;-73
2024/02/05 06:58:22;;;;;;;2.23;0.70;;;;;;;10.08;100.00;100376.22;5055851;28;20577;-73
2024/02/05 07:00:48;;;;;;;1.70;0.50;;;;;;;10.07;100.00;100374.63;5055911;28;20525;-73
2024/02/05 07:03:15;;;;;;;1.50;0.30;;;;;;;10.10;100.00;100371.31;5055547;28;20915;-73
2024/02/05 07:05:42;;;;;;;1.50;0.30;;;;;;;10.08;100.00;100381.63;5056422;28;20438;-73
2024/02/05 07:08:08;;;;;;;1.50;0.30;;;;;;;10.08;100.00;100368.09;5056140;28;20482;-73
2024/02/05 07:10:35;;;;;;;1.60;0.40;;;;;;;10.14;100.00;100383.16;5055592;28;20529;-73
2024/02/05 07:13:03;;;;;;;1.40;0.30;;;;;;;10.10;100.00;100385.66;5055616;28;20533;-72
2024/02/05 07:15:34;;;;;;;1.70;0.40;;;;;;;10.09;100.00;100404.88;5055649;28;20930;-73
2024/02/05 07:18:00;;;;;;;1.50;0.40;;;;;;;10.11;100.00;100399.97;5055876;28;20462;-73
2024/02/05 07:20:27;;;;;;;1.50;0.30;;;;;;;10.12;100.00;100390.75;5055475;28;20449;-73
2024/02/05 07:22:53;;;;;;;1.50;0.40;;;;;;;10.13;100.00;100389.66;5055113;28;21034;-73
2024/02/05 07:25:20;;;;;;;1.60;0.40;;;;;;;10.14;100.00;100391.28;5055405;28;20438;-73
2024/02/05 07:27:47;;;;;;;1.50;0.30;;;;;;;10.12;100.00;100401.59;5055308;28;20525;-73
2024/02/05 07:30:15;;;;;;;1.70;0.43;;;;;;;10.14;100.00;100385.84;5055370;28;21000;-73
2024/02/05 07:32:42;;;;;;;1.50;0.40;;;;;;;10.16;100.00;100399.06;5054947;28;20903;-73
2024/02/05 07:35:09;;;;;;;1.83;0.47;;;;;;;10.11;100.00;100389.16;5055240;28;20525;-73
2024/02/05 07:37:36;;;;;;;1.60;0.40;;;;;;;10.11;100.00;100389.16;5055138;28;20588;-73
2024/02/05 07:40:04;;;;;;;1.60;0.40;;;;;;;10.15;100.00;100389.38;5055573;28;20528;-73
2024/02/05 07:42:31;;;;;;;1.67;0.50;;;;;;;10.15;100.00;100386.66;5054920;28;21004;-74
2024/02/05 07:44:57;;;;;;;1.60;0.50;;;;;;;10.15;100.00;100402.91;5055402;28;20525;-72
2024/02/05 07:47:26;;;;;;;1.80;0.60;;;;;;;10.11;100.00;100398.06;5054767;28;20441;-75
2024/02/05 07:49:52;;;;;;;1.60;0.40;;;;;;;10.10;100.00;100398.38;5055279;28;20521;-73
2024/02/05 07:52:19;;;;;;;1.70;0.57;;;;;;;10.11;100.00;100400.78;5054958;28;20462;-75
2024/02/05 07:54:46;;;;;;;1.50;0.30;;;;;;;10.16;100.00;100407.19;5054899;28;20903;-74
2024/02/05 07:57:12;;;;;;;2.20;0.57;;;;;;;10.14;100.00;100402.09;5054949;28;20807;-74
2024/02/05 07:59:39;;;;;;;1.60;0.40;;;;;;;10.13;100.00;100397.75;5054834;28;20584;-75
2024/02/05 08:02:06;;;;;;;1.57;0.40;;;;;;;10.08;100.00;100406.00;5055030;28;20512;-71
2024/02/05 08:04:34;;;;;;;1.50;0.40;;;;;;;10.07;100.00;100401.69;5054895;28;20453;-75
2024/02/05 08:07:04;;;;;;;1.80;0.50;;;;;;;10.04;100.00;100405.78;5054809;28;20445;-74
2024/02/05 08:09:30;;;;;;;3.50;0.70;;;;;;;10.04;100.00;100397.66;5054945;28;20466;-73
2024/02/05 08:11:57;;;;;;;1.70;0.60;;;;;;;10.05;100.00;100414.75;5054682;28;20462;-74
2024/02/05 08:14:24;;;;;;;1.97;0.60;;;;;;;10.05;100.00;100412.03;5055252;28;20509;-77
2024/02/05 08:16:51;;;;;;;2.53;0.57;;;;;;;10.03;100.00;100408.81;5054131;28;20950;-76
2024/02/05 08:19:17;;;;;;;1.70;0.50;;;;;;;10.03;100.00;100419.63;5054413;28;20536;-76
2024/02/05 08:21:45;;;;;;;1.60;0.47;;;;;;;10.03;100.00;100415.00;5054852;28;21017;-71
2024/02/05 08:24:12;;;;;;;3.10;0.80;;;;;;;10.06;100.00;100424.44;5054082;28;20873;-74
2024/02/05 08:26:38;;;;;;;1.73;0.60;;;;;;;10.06;100.00;100427.94;5055259;28;20497;-74
2024/02/05 08:29:05;;;;;;;2.10;0.60;;;;;;;10.05;100.00;100422.84;5053995;28;20926;-73
2024/02/05 08:31:32;;;;;;;1.70;0.50;;;;;;;10.04;100.00;100438.25;5054462;28;20466;-75
2024/02/05 08:33:58;;;;;;;2.00;0.70;;;;;;;10.11;100.00;100438.66;5054185;28;20473;-73
2024/02/05 08:36:25;;;;;;;1.50;0.40;;;;;;;10.05;100.00;100426.34;5053884;28;20449;-74
2024/02/05 08:38:53;;;;;;;1.60;0.50;;;;;;;9.99;100.00;100414.00;5054222;28;20490;-73
2024/02/05 08:41:19;;;;;;;1.90;0.77;;;;;;;10.01;100.00;100438.09;5053634;28;20942;-75
2024/02/05 08:43:46;;;;;;;2.03;1.10;;;;;;;10.07;100.00;100442.28;5054587;28;20442;-74
2024/02/05 08:46:13;;;;;;;2.20;0.60;;;;;;;10.01;100.00;100444.28;5054004;28;20526;-73
2024/02/05 08:48:40;;;;;;;1.90;0.60;;;;;;;10.00;100.00;100442.66;5054154;28;20468;-73
2024/02/05 08:51:07;;;;;;;3.20;1.03;;;;;;;9.99;100.00;100440.28;5053992;28;20516;-74
2024/02/05 08:53:34;;;;;;;2.70;1.00;;;;;;;10.01;100.00;100432.66;5053359;28;20498;-73
2024/02/05 08:56:02;;;;;;;2.60;1.17;;;;;;;10.01;100.00;100424.56;5053761;28;20444;-74
2024/02/05 08:58:28;;;;;;;2.43;0.90;;;;;;;9.96;100.00;100433.56;5053003;28;20574;-74
2024/02/05 09:00:55;;;;;;;2.50;0.87;;;;;;;10.01;100.00;100448.91;5053756;28;20473;-73
2024/02/05 09:03:22;;;;;;;2.10;0.87;;;;;;;10.04;100.00;100442.88;5053266;28;20510;-73
2024/02/05 09:05:51;;;;;;;3.27;1.27;;;;;;;9.99;100.00;100451.09;5053731;28;20438;-73
2024/02/05 09:08:18;;;;;;;1.77;0.50;;;;;;;10.02;100.00;100437.78;5054116;28;20446;-75
2024/02/05 09:10:44;;;;;;;2.07;0.80;;;;;;;9.99;100.00;100453.81;5053450;28;20922;-74
2024/02/05 09:13:13;;;;;;;3.60;1.30;;;;;;;9.91;100.00;100460.69;5053920;28;20468;-73
2024/02/05 09:15:42;;;;;;;1.60;0.40;;;;;;;9.88;100.00;100449.69;5053406;28;21030;-73
2024/02/05 09:18:09;;;;;;;2.23;0.80;;;;;;;9.92;100.00;100450.72;5053453;28;20573;-74
2024/02/05 09:20:35;;;;;;;3.67;1.10;;;;;;;9.95;100.00;100452.78;5053905;28;20466;-74
2024/02/05 09:23:02;;;;;;;1.87;0.73;;;;;;;9.97;100.00;100461.44;5053168;28;20974;-74
2024/02/05 09:25:28;;;;;;;2.90;0.90;;;;;;;9.92;100.00;100458.81;5053901;28;20533;-74
2024/02/05 09:27:55;;;;;;;2.30;0.97;;;;;;;9.86;100.00;100450.78;5053293;28;20522;-73
2024/02/05 09:30:23;;;;;;;4.57;0.90;;;;;;;9.85;100.00;100464.63;5053316;28;20480;-73
2024/02/05 09:32:50;;;;;;;1.80;0.70;;;;;;;9.90;100.00;100459.09;5053184;28;20836;-70
2024/02/05 09:35:17;;;;;;;3.27;1.40;;;;;;;9.82;100.00;100463.28;5053611;28;20438;-70
2024/02/05 09:37:44;;;;;;;2.00;0.80;;;;;;;9.85;100.00;100472.72;5053241;28;20530;-74
2024/02/05 09:40:11;;;;;;;2.10;0.90;;;;;;;9.89;100.00;100472.94;5053148;28;20484;-74
2024/02/05 09:42:38;;;;;;;1.80;0.60;;;;;;;9.84;100.00;100461.13;5053140;28;20474;-73
2024/02/05 09:45:10;;;;;;;2.13;0.83;;;;;;;9.84;100.00;100471.94;5053854;28;20517;-74
2024/02/05 09:47:40;;;;;;;3.10;0.90;;;;;;;9.85;100.00;100473.53;5052951;28;20465;-74
2024/02/05 09:50:10;;;;;;;2.37;1.10;;;;;;;9.89;100.00;100483.75;5052762;28;20521;-74
2024/02/05 09:52:40;;;;;;;1.70;0.57;;;;;;;9.88;100.00;100471.34;5053281;28;20509;-73
2024/02/05 09:55:10;;;;;;;2.30;0.90;;;;;;;9.97;100.00;100478.47;5053112;28;20453;-74
2024/02/05 09:57:37;;;;;;;2.13;0.67;;;;;;;9.94;100.00;100470.13;5053491;28;20418;-74
2024/02/05 10:00:05;;;;;;;3.40;1.70;;;;;;;9.86;100.00;100475.13;5053462;28;20488;-74
2024/02/05 10:02:34;;;;;;;2.50;0.80;;;;;;;9.84;100.00;100468.44;5052994;28;20497;-74
2024/02/05 10:05:03;;;;;;;2.53;0.80;;;;;;;9.90;100.00;100479.94;5053130;28;20514;-73
2024/02/05 10:07:32;;;;;;;2.50;0.90;;;;;;;9.95;100.00;100472.53;5051971;28;20450;-73
2024/02/05 10:10:02;;;;;;;3.70;1.33;;;;;;;9.99;100.00;100480.88;5056713;28;20447;-73
2024/02/05 10:12:33;;;;;;;2.37;1.13;;;;;;;9.95;100.00;100488.78;5057439;28;20458;-73
2024/02/05 10:15:02;;;;;;;2.17;0.80;;;;;;;9.98;100.00;100490.09;5057192;28;20488;-73
2024/02/05 10:17:28;;;;;;;6.03;1.27;;;;;;;9.98;100.00;100498.19;5057189;28;20458;-73
2024/02/05 10:19:56;;;;;;;12.00;1.20;;;;;;;9.98;100.00;100495.50;5056706;28;20569;-73
2024/02/05 10:22:24;;;;;;;2.43;1.17;;;;;;;10.05;100.00;100491.31;5056921;28;20974;-73
2024/02/05 10:24:51;;;;;;;3.17;1.00;;;;;;;10.07;100.00;100491.00;5057135;28;20528;-73
2024/02/05 10:27:19;;;;;;;2.37;0.80;;;;;;;10.04;100.00;100491.59;5056898;28;20529;-74
2024/02/05 10:29:45;;;;;;;2.20;0.97;;;;;;;10.01;100.00;100492.19;5056627;28;20533;-73
2024/02/05 10:32:12;;;;;;;2.40;1.10;;;;;;;10.05;100.00;100483.19;5057501;28;20493;-72
2024/02/05 10:34:39;;;;;;;3.37;1.50;;;;;;;10.14;100.00;100499.53;5056360;28;20537;-74
2024/02/05 10:37:08;;;;;;;2.30;1.23;;;;;;;10.15;100.00;100495.72;5056082;28;20438;-72
2024/02/05 10:39:36;;;;;;;2.40;0.80;;;;;;;10.16;100.00;100489.19;5056657;28;20531;-72
2024/02/05 10:42:04;;;;;;;11.13;1.53;;;;;;;10.12;100.00;100482.78;5056439;28;20549;-73
2024/02/05 10:44:30;;;;;;;4.50;1.17;;;;;;;10.11;100.00;100502.81;5056208;28;20443;-73
2024/02/05 10:46:57;;;;;;;3.20;1.43;;;;;;;10.12;100.00;100496.31;5055840;28;20473;-72
2024/02/05 10:49:24;;;;;;;2.50;0.77;;;;;;;10.05;100.00;100514.84;5056347;28;20513;-72
2024/02/05 10:51:52;;;;;;;1.80;0.80;;;;;;;9.99;100.00;100500.59;5056686;28;20454;-72
2024/02/05 10:54:21;;;;;;;2.40;0.80;;;;;;;9.88;100.00;100507.31;5057748;28;20450;-73
2024/02/05 10:56:54;;;;;;;3.30;1.13;;;;;;;9.91;100.00;100492.38;5057244;28;20445;-72
2024/02/05 10:59:22;;;;;;;2.10;0.60;;;;;;;9.82;100.00;100498.47;5059213;28;20495;-72
2024/02/05 11:01:54;;;;;;;1.70;0.60;;;;;;;9.83;100.00;100497.38;5059025;28;20474;-72
2024/02/05 11:04:22;;;;;;;2.60;1.17;;;;;;;9.78;100.00;100494.78;5055531;28;20543;-71
2024/02/05 11:06:53;;;;;;;3.33;1.33;;;;;;;9.70;100.00;100481.94;5055088;28;20605;-71
2024/02/05 11:09:23;;;;;;;2.60;1.10;;;;;;;9.80;100.00;100503.38;5055443;28;21126;-71
2024/02/05 11:11:57;;;;;;;2.93;1.00;;;;;;;9.77;100.00;100481.53;5055771;28;20515;-72
2024/02/05 11:14:25;;;;;;;3.27;1.30;;;;;;;9.78;100.00;100483.97;5056086;28;20462;-72
2024/02/05 11:16:52;;;;;;;1.90;0.70;;;;;;;9.76;100.00;100485.34;5055815;28;20948;-71
2024/02/05 11:19:20;;;;;;;3.23;1.47;;;;;;;9.77;100.00;100476.91;5056087;28;20539;-72